createdAt,value
2023-01-07T00:01:40.357Z,4.78
2023-01-07T00:05:22.118Z,4.65
2023-01-07T00:09:06.404Z,3.58
2023-01-07T00:12:48.131Z,3.97
2023-01-07T00:16:31.532Z,3.55
2023-01-07T00:20:13.292Z,4.15
2023-01-07T00:23:57.266Z,4.05
2023-01-07T00:27:38.999Z,4.00
2023-01-07T00:31:26.332Z,4.22
2023-01-07T00:35:21.737Z,4.10
2023-01-07T00:39:05.580Z,3.35
2023-01-07T00:43:04.830Z,3.70
2023-01-07T00:46:46.622Z,3.78
2023-01-07T00:50:33.394Z,3.58
2023-01-07T00:54:15.097Z,2.80
2023-01-07T00:57:57.551Z,3.78
2023-01-07T01:01:39.416Z,3.47
2023-01-07T01:05:22.131Z,3.70
2023-01-07T01:09:03.977Z,3.30
2023-01-07T01:12:46.252Z,4.13
2023-01-07T01:16:28.099Z,3.42
2023-01-07T01:20:13.829Z,3.53
2023-01-07T01:23:55.515Z,3.90
2023-01-07T01:27:37.368Z,3.70
2023-01-07T01:31:19.152Z,3.15
2023-01-07T01:35:00.993Z,3.65
2023-01-07T01:38:43.007Z,3.63
2023-01-07T01:42:25.726Z,3.35
2023-01-07T01:46:18.409Z,3.63
2023-01-07T01:50:13.167Z,3.53
2023-01-07T01:53:55.807Z,3.00
2023-01-07T01:57:40.004Z,2.95
2023-01-07T02:01:22.040Z,2.92
2023-01-07T02:05:04.494Z,3.03
2023-01-07T02:08:46.234Z,2.50
2023-01-07T02:12:58.790Z,3.00
2023-01-07T02:16:49.404Z,3.25
2023-01-07T02:20:40.500Z,3.65
2023-01-07T02:24:40.176Z,3.55
2023-01-07T02:28:40.692Z,3.78
2023-01-07T02:32:25.184Z,3.47
2023-01-07T02:36:16.968Z,4.57
2023-01-07T02:40:15.951Z,3.92
2023-01-07T02:44:05.180Z,4.32
2023-01-07T02:48:12.076Z,4.40
2023-01-07T02:51:53.862Z,4.85
2023-01-07T02:55:56.929Z,3.92
2023-01-07T03:00:00.483Z,4.30
2023-01-07T03:04:08.131Z,4.35
2023-01-07T03:08:14.122Z,4.10
2023-01-07T03:12:11.657Z,3.92
2023-01-07T03:16:08.143Z,3.95
2023-01-07T03:19:55.014Z,4.40
2023-01-07T03:23:43.651Z,4.22
2023-01-07T03:27:30.479Z,3.60
2023-01-07T03:31:15.443Z,3.40
2023-01-07T03:34:57.701Z,3.33
2023-01-07T03:38:43.054Z,3.70
2023-01-07T03:42:40.508Z,3.20
2023-01-07T03:46:22.357Z,3.85
2023-01-07T03:50:04.428Z,3.08
2023-01-07T03:53:46.172Z,3.47
2023-01-07T03:57:29.171Z,3.65
2023-01-07T04:01:11.086Z,3.75
2023-01-07T04:04:53.416Z,4.47
2023-01-07T04:08:37.183Z,4.07
2023-01-07T04:12:18.944Z,4.30
2023-01-07T04:16:00.651Z,3.67
2023-01-07T04:19:42.394Z,3.72
2023-01-07T04:23:24.259Z,3.75
2023-01-07T04:27:06.031Z,3.38
2023-01-07T04:30:47.864Z,3.88
2023-01-07T04:34:29.608Z,3.95
2023-01-07T04:38:11.343Z,3.95
2023-01-07T04:41:53.055Z,3.75
2023-01-07T04:45:34.938Z,4.05
2023-01-07T04:49:16.814Z,2.90
2023-01-07T04:52:58.537Z,3.75
2023-01-07T04:56:40.292Z,3.78
2023-01-07T05:00:22.035Z,3.20
2023-01-07T05:04:04.133Z,3.10
2023-01-07T05:07:46.320Z,3.65
2023-01-07T05:11:28.051Z,3.38
2023-01-07T05:15:10.220Z,3.38
2023-01-07T05:18:51.972Z,3.47
2023-01-07T05:22:33.695Z,3.45
2023-01-07T05:26:15.512Z,3.20
2023-01-07T05:29:57.240Z,3.53
2023-01-07T05:33:38.994Z,3.47
2023-01-07T05:37:20.716Z,2.92
2023-01-07T05:41:02.524Z,3.70
2023-01-07T05:44:44.275Z,3.70
2023-01-07T05:48:26.211Z,4.28
2023-01-07T05:52:08.103Z,3.33
2023-01-07T05:55:55.135Z,4.50
2023-01-07T05:59:36.972Z,3.85
2023-01-07T06:03:19.759Z,3.22
2023-01-07T06:07:01.705Z,4.07
2023-01-07T06:10:44.447Z,3.50
2023-01-07T06:14:26.181Z,4.32
2023-01-07T06:18:07.943Z,3.22
2023-01-07T06:21:49.951Z,3.50
2023-01-07T06:25:31.647Z,3.88
2023-01-07T06:29:13.563Z,3.45
2023-01-07T06:32:55.355Z,3.63
2023-01-07T06:36:37.090Z,3.67
2023-01-07T06:40:19.124Z,3.03
2023-01-07T06:44:00.865Z,3.30
2023-01-07T06:47:42.714Z,3.10
2023-01-07T06:51:24.479Z,3.15
2023-01-07T06:55:06.817Z,3.15
2023-01-07T06:58:48.552Z,2.90
2023-01-07T07:02:30.441Z,2.95
2023-01-07T07:06:12.385Z,3.10
2023-01-07T07:09:54.168Z,3.70
2023-01-07T07:13:36.184Z,2.85
2023-01-07T07:17:17.922Z,3.20
2023-01-07T07:20:59.932Z,3.25
2023-01-07T07:24:41.672Z,3.08
2023-01-07T07:28:23.433Z,2.92
2023-01-07T07:32:05.533Z,3.15
2023-01-07T07:35:47.660Z,3.83
2023-01-07T07:39:29.349Z,3.13
2023-01-07T07:43:12.987Z,3.10
2023-01-07T07:46:55.087Z,3.47
2023-01-07T07:50:37.305Z,3.20
2023-01-07T07:54:19.139Z,2.70
2023-01-07T07:58:00.835Z,3.25
2023-01-07T08:01:42.813Z,3.33
2023-01-07T08:05:24.851Z,4.95
2023-01-07T08:09:06.650Z,3.72
2023-01-07T08:12:50.495Z,3.50
2023-01-07T08:16:32.434Z,3.67
2023-01-07T08:20:14.182Z,4.60
2023-01-07T08:23:55.982Z,3.10
2023-01-07T08:27:37.731Z,3.08
2023-01-07T08:31:19.533Z,4.25
2023-01-07T08:35:01.281Z,3.85
2023-01-07T08:38:44.234Z,3.97
2023-01-07T08:42:26.767Z,3.60
2023-01-07T08:46:08.516Z,3.58
2023-01-07T08:49:51.617Z,3.30
2023-01-07T08:53:33.915Z,3.65
2023-01-07T08:57:16.937Z,3.40
2023-01-07T09:01:03.438Z,3.17
2023-01-07T09:04:45.596Z,3.75
2023-01-07T09:08:27.449Z,3.13
2023-01-07T09:12:10.932Z,3.33
2023-01-07T09:15:53.249Z,3.03
2023-01-07T09:19:35.044Z,3.28
2023-01-07T09:23:17.353Z,2.70
2023-01-07T09:26:59.063Z,4.15
2023-01-07T09:30:40.882Z,3.58
2023-01-07T09:34:22.647Z,3.08
2023-01-07T09:38:04.439Z,3.35
2023-01-07T09:42:05.578Z,3.35
2023-01-07T09:45:52.417Z,4.07
2023-01-07T09:49:34.323Z,3.58
2023-01-07T09:53:44.276Z,2.85
2023-01-07T09:57:27.730Z,3.35
2023-01-07T10:01:26.166Z,3.70
2023-01-07T10:05:26.575Z,3.55
2023-01-07T10:09:51.002Z,3.47
2023-01-07T10:14:02.939Z,2.95
2023-01-07T10:17:47.662Z,3.28
2023-01-07T10:21:53.682Z,3.60
2023-01-07T10:25:44.045Z,3.15
2023-01-07T10:29:25.719Z,3.50
2023-01-07T10:33:26.600Z,3.28
2023-01-07T10:37:27.134Z,3.72
2023-01-07T10:41:22.645Z,3.30
2023-01-07T10:45:04.510Z,3.05
2023-01-07T10:48:59.845Z,3.83
2023-01-07T10:52:58.582Z,3.25
2023-01-07T10:56:48.806Z,3.00
2023-01-07T11:00:30.887Z,4.88
2023-01-07T11:04:15.801Z,3.58
2023-01-07T11:08:01.547Z,3.72
2023-01-07T11:11:45.889Z,3.30
2023-01-07T11:19:14.784Z,4.30
2023-01-07T11:22:56.521Z,2.30
2023-01-07T11:26:38.311Z,3.35
2023-01-07T11:30:29.009Z,2.20
2023-01-07T11:34:28.027Z,1.83
2023-01-07T11:38:48.366Z,2.22
2023-01-07T11:42:39.492Z,1.75
2023-01-07T11:46:25.883Z,1.70
2023-01-07T11:50:34.423Z,1.65
2023-01-07T11:54:28.177Z,1.75
2023-01-07T11:58:30.036Z,1.90
2023-01-07T12:02:28.025Z,2.58
2023-01-07T12:06:25.111Z,1.90
2023-01-07T12:10:44.349Z,2.33
2023-01-07T12:14:32.796Z,2.47
2023-01-07T12:18:37.842Z,2.35
2023-01-07T12:23:05.211Z,2.10
2023-01-07T12:27:22.291Z,2.70
2023-01-07T12:31:22.714Z,3.55
2023-01-07T12:35:33.174Z,3.13
2023-01-07T12:39:25.367Z,2.47
2023-01-07T12:43:39.172Z,2.38
2023-01-07T12:51:33.938Z,3.33
2023-01-07T12:55:39.793Z,2.63
2023-01-07T12:59:46.518Z,2.63
2023-01-07T13:04:01.301Z,3.15
2023-01-07T13:07:47.664Z,2.63
2023-01-07T13:12:02.141Z,4.03
2023-01-07T13:15:43.927Z,5.60
2023-01-07T13:19:25.691Z,3.10
2023-01-07T13:23:16.745Z,5.47
2023-01-07T13:27:16.583Z,3.72
2023-01-07T13:31:12.391Z,3.13
2023-01-07T13:35:15.853Z,2.72
2023-01-07T13:39:13.757Z,4.32
2023-01-07T13:43:18.079Z,3.30
2023-01-07T13:47:03.650Z,3.08
2023-01-07T13:50:57.009Z,3.35
2023-01-07T13:54:50.665Z,4.13
2023-01-07T13:58:32.349Z,3.90
2023-01-07T14:02:42.252Z,4.75
2023-01-07T14:06:27.017Z,4.38
2023-01-07T14:10:26.740Z,4.72
2023-01-07T14:14:46.497Z,4.60
2023-01-07T14:18:39.963Z,3.28
2023-01-07T14:26:32.907Z,3.17
2023-01-07T14:30:28.384Z,2.90
2023-01-07T14:34:18.809Z,3.85
2023-01-07T14:38:00.719Z,3.97
2023-01-07T14:42:21.004Z,3.80
2023-01-07T14:46:03.066Z,4.15
2023-01-07T14:50:04.551Z,3.30
2023-01-07T14:54:07.783Z,4.70
2023-01-07T14:58:11.250Z,3.45
2023-01-07T15:02:24.061Z,2.78
2023-01-07T15:06:11.577Z,2.50
2023-01-07T15:10:20.960Z,3.08
2023-01-07T15:14:32.558Z,2.75
2023-01-07T15:18:15.959Z,3.03
2023-01-07T15:26:28.685Z,3.00
2023-01-07T15:30:30.849Z,3.38
2023-01-07T15:34:17.797Z,3.20
2023-01-07T15:38:02.743Z,4.43
2023-01-07T15:41:44.572Z,3.60
2023-01-07T15:45:28.543Z,3.65
2023-01-07T15:49:10.229Z,4.40
2023-01-07T15:52:53.732Z,3.83
2023-01-07T15:56:36.570Z,7.50
2023-01-07T16:00:20.144Z,6.80
2023-01-07T16:04:03.632Z,3.90
2023-01-07T16:07:48.085Z,4.82
2023-01-07T16:11:31.346Z,5.53
2023-01-07T16:15:27.172Z,4.82
2023-01-07T16:19:20.451Z,4.53
2023-01-07T16:23:08.428Z,5.50
2023-01-07T16:26:55.047Z,3.72
2023-01-07T16:30:40.832Z,3.38
2023-01-07T16:34:25.523Z,4.75
2023-01-07T16:38:08.966Z,5.30
2023-01-07T16:45:35.004Z,4.82
2023-01-07T16:49:28.340Z,3.95
2023-01-07T16:53:30.315Z,3.72
2023-01-07T16:57:11.994Z,4.68
2023-01-07T17:00:56.000Z,4.07
2023-01-07T17:04:38.193Z,4.25
2023-01-07T17:08:20.338Z,5.32
2023-01-07T17:12:02.620Z,6.82
2023-01-07T17:15:48.586Z,6.10
2023-01-07T17:19:42.348Z,5.28
2023-01-07T17:23:27.410Z,4.90
2023-01-07T17:27:18.388Z,3.40
2023-01-07T17:31:01.138Z,3.08
2023-01-07T17:34:42.866Z,4.07
2023-01-07T17:38:24.739Z,4.15
2023-01-07T17:42:38.508Z,3.85
2023-01-07T17:46:20.255Z,3.60
2023-01-07T17:50:02.063Z,4.25
2023-01-07T17:53:49.625Z,7.05
2023-01-07T17:57:31.398Z,4.88
2023-01-07T18:01:20.150Z,4.32
2023-01-07T18:05:01.995Z,4.85
2023-01-07T18:08:46.079Z,3.83
2023-01-07T18:12:30.548Z,5.00
2023-01-07T18:16:14.390Z,5.32
2023-01-07T18:19:57.517Z,4.38
2023-01-07T18:23:39.287Z,4.38
2023-01-07T18:27:20.984Z,5.63
2023-01-07T18:31:02.721Z,5.25
2023-01-07T18:34:44.520Z,5.38
2023-01-07T18:38:26.353Z,4.88
2023-01-07T18:42:08.095Z,5.68
2023-01-07T18:45:50.013Z,6.38
2023-01-07T18:49:31.772Z,4.78
2023-01-07T18:53:14.247Z,3.33
2023-01-07T18:56:56.011Z,4.73
2023-01-07T19:00:37.828Z,4.65
2023-01-07T19:04:19.604Z,5.13
2023-01-07T19:08:01.345Z,4.70
2023-01-07T19:11:43.091Z,5.43
2023-01-07T19:15:24.798Z,5.00
2023-01-07T19:19:06.592Z,5.25
2023-01-07T19:22:48.310Z,5.43
2023-01-07T19:26:30.974Z,5.10
2023-01-07T19:30:12.982Z,6.10
2023-01-07T19:33:54.703Z,5.45
2023-01-07T19:37:39.591Z,6.18
2023-01-07T19:41:23.882Z,5.72
2023-01-07T19:45:06.866Z,6.88
2023-01-07T19:48:48.668Z,5.60
2023-01-07T19:52:30.408Z,6.13
2023-01-07T19:56:12.786Z,6.10
2023-01-07T19:59:54.551Z,7.25
2023-01-07T20:03:37.083Z,6.10
2023-01-07T20:07:18.794Z,6.70
2023-01-07T20:11:04.575Z,6.63
2023-01-07T20:14:46.376Z,7.43
2023-01-07T20:18:28.101Z,5.43
2023-01-07T20:22:10.920Z,6.00
2023-01-07T20:25:52.658Z,6.40
2023-01-07T20:29:35.892Z,5.70
2023-01-07T20:33:18.073Z,5.75
2023-01-07T20:36:59.845Z,6.25
2023-01-07T20:40:42.786Z,7.65
2023-01-07T20:44:24.507Z,6.45
2023-01-07T20:48:06.267Z,6.82
2023-01-07T20:51:47.970Z,7.05
2023-01-07T20:55:30.106Z,7.13
2023-01-07T20:59:14.133Z,7.28
2023-01-07T21:02:55.917Z,7.88
2023-01-07T21:06:37.630Z,7.35
2023-01-07T21:10:19.798Z,6.68
2023-01-07T21:14:01.719Z,6.00
2023-01-07T21:17:43.572Z,5.47
2023-01-07T21:21:25.776Z,8.30
2023-01-07T21:25:11.087Z,6.78
2023-01-07T21:28:55.829Z,7.72
2023-01-07T21:32:37.800Z,6.38
2023-01-07T21:36:20.973Z,5.60
2023-01-07T21:40:04.379Z,5.63
2023-01-07T21:47:27.849Z,7.78
2023-01-07T21:51:16.261Z,7.40
2023-01-07T21:54:57.979Z,5.63
2023-01-07T21:58:39.823Z,5.60
2023-01-07T22:02:24.262Z,6.15
2023-01-07T22:06:08.498Z,6.03
2023-01-07T22:09:50.340Z,5.30
2023-01-07T22:13:32.021Z,5.18
2023-01-07T22:17:15.048Z,6.47
2023-01-07T22:20:56.805Z,4.80
2023-01-07T22:24:38.571Z,5.40
2023-01-07T22:28:23.341Z,6.35
2023-01-07T22:32:05.388Z,4.85
2023-01-07T22:35:48.094Z,7.00
2023-01-07T22:39:38.706Z,6.38
2023-01-07T22:43:21.484Z,6.18
2023-01-07T22:47:07.335Z,5.60
2023-01-07T22:50:49.676Z,6.05
2023-01-07T22:54:32.019Z,6.28
2023-01-07T22:58:14.288Z,5.63
2023-01-07T23:01:56.061Z,6.30
2023-01-07T23:05:39.730Z,5.07
2023-01-07T23:09:21.494Z,4.57
2023-01-07T23:13:04.007Z,5.43
2023-01-07T23:16:46.030Z,6.37
2023-01-07T23:20:27.803Z,4.97
2023-01-07T23:24:10.626Z,5.28
2023-01-07T23:27:52.500Z,5.55
2023-01-07T23:31:35.456Z,5.13
2023-01-07T23:35:17.308Z,5.00
2023-01-07T23:38:59.100Z,6.47
2023-01-07T23:42:41.261Z,4.90
2023-01-07T23:46:23.007Z,5.93
2023-01-07T23:50:05.170Z,5.40
2023-01-07T23:53:47.203Z,6.10
2023-01-07T23:57:28.936Z,6.50
